createdAt,value
2019-02-22T00:00:55.849Z,102360.05
2019-02-22T00:04:03.088Z,102360.80
2019-02-22T00:07:10.475Z,102363.84
2019-02-22T00:10:17.689Z,102367.64
2019-02-22T00:13:24.950Z,102379.59
2019-02-22T00:16:32.478Z,102379.59
2019-02-22T00:19:39.696Z,102386.86
2019-02-22T00:22:47.233Z,102393.28
2019-02-22T00:26:03.689Z,102396.61
2019-02-22T00:29:10.835Z,102391.62
2019-02-22T00:32:18.052Z,102399.27
2019-02-22T00:35:26.235Z,102407.81
2019-02-22T00:38:33.355Z,102411.82
2019-02-22T00:41:40.571Z,102418.80
2019-02-22T00:44:47.784Z,102419.28
2019-02-22T00:47:55.037Z,102429.89
2019-02-22T00:51:02.165Z,102431.25
2019-02-22T00:54:09.505Z,102436.77
2019-02-22T00:57:16.644Z,102442.78
2019-02-22T01:00:23.943Z,102440.64
2019-02-22T01:03:31.085Z,102455.03
2019-02-22T01:06:38.308Z,102455.91
2019-02-22T01:09:45.537Z,102458.47
2019-02-22T01:12:52.667Z,102460.27
2019-02-22T01:15:59.914Z,102470.49
2019-02-22T01:19:07.124Z,102469.63
2019-02-22T01:22:14.331Z,102473.48
2019-02-22T01:25:21.557Z,102478.19
2019-02-22T01:28:28.774Z,102478.17
2019-02-22T01:31:35.916Z,102494.85
2019-02-22T01:34:43.224Z,102496.09
2019-02-22T01:37:50.430Z,102498.67
2019-02-22T01:40:57.662Z,102506.77
2019-02-22T01:44:04.889Z,102513.94
2019-02-22T01:47:12.129Z,102513.52
2019-02-22T01:50:23.859Z,102519.58
2019-02-22T01:53:31.117Z,102523.02
2019-02-22T01:56:38.345Z,102537.44
2019-02-22T01:59:45.487Z,102534.03
2019-02-22T02:02:52.691Z,102545.63
2019-02-22T02:05:59.839Z,102553.23
2019-02-22T02:09:07.067Z,102554.09
2019-02-22T02:12:12.694Z,102552.02
2019-02-22T02:15:20.022Z,102555.80
2019-02-22T02:18:27.260Z,102563.47
2019-02-22T02:21:34.509Z,102561.75
2019-02-22T02:24:41.653Z,102560.91
2019-02-22T02:27:48.897Z,102554.51
2019-02-22T02:30:56.110Z,102557.88
2019-02-22T02:34:03.296Z,102564.27
2019-02-22T02:37:10.537Z,102562.19
2019-02-22T02:40:17.675Z,102561.29
2019-02-22T02:43:24.815Z,102572.41
2019-02-22T02:46:32.298Z,102573.27
2019-02-22T02:49:39.437Z,102578.80
2019-02-22T02:52:46.757Z,102578.80
2019-02-22T02:55:54.089Z,102572.42
2019-02-22T02:59:01.285Z,102587.33
2019-02-22T03:02:15.252Z,102603.03
2019-02-22T03:05:53.807Z,102606.88
2019-02-22T03:09:01.171Z,102611.63
2019-02-22T03:12:08.312Z,102619.33
2019-02-22T03:15:17.203Z,102630.47
2019-02-22T03:18:24.422Z,102627.09
2019-02-22T03:21:31.736Z,102626.70
2019-02-22T03:24:38.935Z,102633.51
2019-02-22T03:27:46.074Z,102639.48
2019-02-22T03:30:53.472Z,102645.52
2019-02-22T03:34:10.072Z,102652.38
2019-02-22T03:37:17.212Z,102654.99
2019-02-22T03:40:34.205Z,102663.95
2019-02-22T03:43:50.913Z,102670.37
2019-02-22T03:47:07.577Z,102670.41
2019-02-22T03:50:14.852Z,102680.63
2019-02-22T03:53:25.879Z,102693.85
2019-02-22T03:56:33.119Z,102693.86
2019-02-22T03:59:40.328Z,102702.80
2019-02-22T04:02:47.633Z,102712.58
2019-02-22T04:05:54.934Z,102714.28
2019-02-22T04:09:02.230Z,102723.22
2019-02-22T04:12:09.454Z,102728.31
2019-02-22T04:15:16.580Z,102734.73
2019-02-22T04:18:23.864Z,102748.74
2019-02-22T04:21:30.994Z,102753.45
2019-02-22T04:24:38.233Z,102753.88
2019-02-22T04:27:45.379Z,102761.11
2019-02-22T04:30:52.567Z,102759.81
2019-02-22T04:33:59.902Z,102766.19
2019-02-22T04:37:07.044Z,102773.86
2019-02-22T04:40:14.165Z,102793.83
2019-02-22T04:43:21.386Z,102798.05
2019-02-22T04:46:28.649Z,102789.12
2019-02-22T04:49:35.754Z,102802.70
2019-02-22T04:52:42.862Z,102800.99
2019-02-22T04:55:49.993Z,102812.48
2019-02-22T04:58:57.229Z,102809.92
2019-02-22T05:02:04.356Z,102815.48
2019-02-22T05:05:11.645Z,102822.72
2019-02-22T05:08:18.868Z,102827.73
2019-02-22T05:11:25.497Z,102840.06
2019-02-22T05:14:42.210Z,102837.14
2019-02-22T05:17:58.801Z,102853.25
2019-02-22T05:21:05.999Z,102856.64
2019-02-22T05:24:22.798Z,102865.53
2019-02-22T05:27:39.553Z,102878.23
2019-02-22T05:30:56.253Z,102877.84
2019-02-22T05:34:03.483Z,102885.06
2019-02-22T05:37:10.683Z,102885.88
2019-02-22T05:40:27.480Z,102893.16
2019-02-22T05:43:34.689Z,102901.59
2019-02-22T05:46:41.931Z,102908.83
2019-02-22T05:49:58.605Z,102910.53
2019-02-22T05:53:05.733Z,102913.06
2019-02-22T05:56:12.955Z,102920.11
2019-02-22T05:59:20.173Z,102928.23
2019-02-22T06:02:27.303Z,102932.84
2019-02-22T06:05:34.653Z,102943.05
2019-02-22T06:08:41.939Z,102949.25
2019-02-22T06:11:49.191Z,102951.84
2019-02-22T06:14:57.012Z,102953.15
2019-02-22T06:18:04.154Z,102956.34
2019-02-22T06:21:11.443Z,102961.35
2019-02-22T06:24:18.679Z,102966.81
2019-02-22T06:27:25.934Z,102971.48
2019-02-22T06:30:33.618Z,102977.50
2019-02-22T06:33:41.191Z,102986.77
2019-02-22T06:37:01.670Z,102987.24
2019-02-22T06:40:07.014Z,103004.30
2019-02-22T06:43:14.703Z,103013.56
2019-02-22T06:46:22.223Z,103029.70
2019-02-22T06:49:29.458Z,103037.75
2019-02-22T06:52:36.696Z,103036.92
2019-02-22T06:55:43.438Z,103050.77
2019-02-22T06:58:50.735Z,103046.25
2019-02-22T07:01:57.964Z,103056.88
2019-02-22T07:05:05.766Z,103060.69
2019-02-22T07:08:12.848Z,103071.75
2019-02-22T07:11:33.044Z,103078.11
2019-02-22T07:14:54.314Z,103091.72
2019-02-22T07:18:11.005Z,103106.15
2019-02-22T07:21:18.138Z,103112.92
2019-02-22T07:24:25.423Z,103112.73
2019-02-22T07:27:32.664Z,103128.77
2019-02-22T07:30:39.791Z,103135.31
2019-02-22T07:33:56.680Z,103138.37
2019-02-22T07:37:03.885Z,103146.69
2019-02-22T07:40:11.296Z,103162.84
2019-02-22T07:43:27.865Z,103166.84
2019-02-22T07:46:44.545Z,103172.89
2019-02-22T07:49:51.692Z,103181.83
2019-02-22T07:52:58.815Z,103187.70
2019-02-22T07:56:06.025Z,103196.39
2019-02-22T07:59:13.163Z,103200.39
2019-02-22T08:02:20.396Z,103211.37
2019-02-22T08:05:33.169Z,103214.70
2019-02-22T08:08:36.370Z,103222.85
2019-02-22T08:11:43.499Z,103232.10
2019-02-22T08:14:50.626Z,103231.48
2019-02-22T08:17:57.771Z,103235.09
2019-02-22T08:21:04.989Z,103245.38
2019-02-22T08:24:12.199Z,103253.75
2019-02-22T08:27:19.522Z,103263.38
2019-02-22T08:30:26.759Z,103277.29
2019-02-22T08:33:34.000Z,103291.90
2019-02-22T08:36:41.244Z,103290.14
2019-02-22T08:39:58.352Z,103297.07
2019-02-22T08:42:57.350Z,103305.19
2019-02-22T08:46:04.556Z,103305.06
2019-02-22T08:49:11.735Z,103308.77
2019-02-22T08:52:18.867Z,103322.78
2019-02-22T08:55:26.002Z,103320.77
2019-02-22T08:58:33.139Z,103332.92
2019-02-22T09:01:40.387Z,103332.73
2019-02-22T09:04:47.575Z,103332.77
2019-02-22T09:07:54.803Z,103349.91
2019-02-22T09:11:02.106Z,103338.70
2019-02-22T09:14:09.247Z,103339.35
2019-02-22T09:17:16.448Z,103349.93
2019-02-22T09:20:23.685Z,103361.54
2019-02-22T09:23:31.083Z,103355.77
2019-02-22T09:26:47.729Z,103364.97
2019-02-22T09:29:58.842Z,103371.72
2019-02-22T09:33:03.756Z,103376.72
2019-02-22T09:36:11.303Z,103385.01
2019-02-22T09:39:27.758Z,103388.47
2019-02-22T09:42:34.883Z,103384.46
2019-02-22T09:45:42.123Z,103391.23
2019-02-22T09:48:49.355Z,103391.51
2019-02-22T09:52:06.220Z,103398.02
2019-02-22T09:55:13.459Z,103411.67
2019-02-22T09:58:20.562Z,103417.84
2019-02-22T10:01:27.782Z,103415.21
2019-02-22T10:04:35.094Z,103425.02
2019-02-22T10:07:42.249Z,103424.95
2019-02-22T10:10:58.921Z,103427.09
2019-02-22T10:14:07.071Z,103431.16
2019-02-22T10:17:14.431Z,103423.69
2019-02-22T10:20:21.560Z,103432.28
2019-02-22T10:23:28.875Z,103439.62
2019-02-22T10:26:36.040Z,103426.95
2019-02-22T10:29:43.298Z,103436.48
2019-02-22T10:32:50.532Z,103429.67
2019-02-22T10:35:57.728Z,103433.94
2019-02-22T10:39:06.189Z,103438.44
2019-02-22T10:42:13.402Z,103439.50
2019-02-22T10:45:20.717Z,103434.04
2019-02-22T10:48:28.070Z,103438.83
2019-02-22T10:51:35.409Z,103444.54
2019-02-22T10:54:42.606Z,103447.61
2019-02-22T10:57:49.951Z,103449.17
2019-02-22T11:00:57.094Z,103458.45
2019-02-22T11:04:04.365Z,103456.72
2019-02-22T11:07:10.581Z,103453.23
2019-02-22T11:10:26.977Z,103451.28
2019-02-22T11:13:34.106Z,103459.88
2019-02-22T11:16:41.499Z,103455.17
2019-02-22T11:19:58.121Z,103457.22
2019-02-22T11:23:14.864Z,103446.76
2019-02-22T11:26:22.070Z,103460.20
2019-02-22T11:29:29.198Z,103449.85
2019-02-22T11:32:36.434Z,103450.58
2019-02-22T11:35:43.556Z,103447.30
2019-02-22T11:38:50.765Z,103447.31
2019-02-22T11:41:57.883Z,103461.94
2019-02-22T11:45:05.223Z,103466.34
2019-02-22T11:48:12.442Z,103478.06
2019-02-22T11:51:19.775Z,103476.84
2019-02-22T11:54:26.887Z,103477.73
2019-02-22T11:57:34.096Z,103481.98
2019-02-22T12:00:41.232Z,103486.90
2019-02-22T12:03:48.818Z,103479.05
2019-02-22T12:07:05.281Z,103473.59
2019-02-22T12:10:12.479Z,103471.75
2019-02-22T12:13:31.868Z,103481.75
2019-02-22T12:16:47.588Z,103474.15
2019-02-22T12:19:54.806Z,103482.65
2019-02-22T12:23:02.185Z,103483.03
2019-02-22T12:26:18.772Z,103489.11
2019-02-22T12:29:25.974Z,103492.42
2019-02-22T12:32:33.201Z,103501.23
2019-02-22T12:35:40.502Z,103499.77
2019-02-22T12:38:57.215Z,103501.92
2019-02-22T12:42:04.440Z,103506.20
2019-02-22T12:45:21.282Z,103503.57
2019-02-22T12:48:37.947Z,103498.61
2019-02-22T12:51:45.182Z,103500.72
2019-02-22T12:54:52.564Z,103497.26
2019-02-22T12:58:09.250Z,103491.28
2019-02-22T13:01:16.435Z,103503.80
2019-02-22T13:04:33.494Z,103501.53
2019-02-22T13:07:52.437Z,103508.30
2019-02-22T13:11:08.458Z,103511.02
2019-02-22T13:14:25.111Z,103531.94
2019-02-22T13:17:32.359Z,103528.82
2019-02-22T13:20:39.579Z,103542.10
2019-02-22T13:23:47.071Z,103538.16
2019-02-22T13:27:03.501Z,103547.70
2019-02-22T13:30:11.872Z,103541.30
2019-02-22T13:33:19.010Z,103539.48
2019-02-22T13:36:26.099Z,103528.73
2019-02-22T13:39:33.327Z,103525.81
2019-02-22T13:42:40.834Z,103519.76
2019-02-22T13:45:48.141Z,103526.01
2019-02-22T13:48:55.349Z,103527.84
2019-02-22T13:52:02.580Z,103524.45
2019-02-22T13:55:10.259Z,103517.14
2019-02-22T13:58:26.672Z,103512.58
2019-02-22T14:01:33.903Z,103516.53
2019-02-22T14:04:41.132Z,103517.24
2019-02-22T14:07:57.897Z,103524.23
2019-02-22T14:11:05.191Z,103535.78
2019-02-22T14:14:12.312Z,103529.40
2019-02-22T14:17:19.444Z,103531.97
2019-02-22T14:20:26.715Z,103543.39
2019-02-22T14:23:43.463Z,103541.37
2019-02-22T14:26:50.594Z,103549.91
2019-02-22T14:29:57.736Z,103543.97
2019-02-22T14:33:04.935Z,103543.95
2019-02-22T14:36:12.071Z,103542.19
2019-02-22T14:39:19.217Z,103553.73
2019-02-22T14:42:26.350Z,103559.38
2019-02-22T14:45:33.862Z,103559.38
2019-02-22T14:48:41.047Z,103552.03
2019-02-22T14:51:48.290Z,103566.63
2019-02-22T14:54:55.583Z,103562.79
2019-02-22T14:58:12.262Z,103552.52
2019-02-22T15:01:19.366Z,103556.80
2019-02-22T15:04:26.565Z,103545.65
2019-02-22T15:07:33.699Z,103553.34
2019-02-22T15:10:40.931Z,103557.20
2019-02-22T15:13:48.172Z,103555.07
2019-02-22T15:17:13.103Z,103564.93
2019-02-22T15:20:20.420Z,103573.91
2019-02-22T15:23:27.542Z,103575.21
2019-02-22T15:26:44.469Z,103576.94
2019-02-22T15:30:01.297Z,103581.62
2019-02-22T15:33:17.969Z,103574.77
2019-02-22T15:36:25.099Z,103580.18
2019-02-22T15:39:32.325Z,103575.91
2019-02-22T15:42:49.114Z,103564.97
2019-02-22T15:45:56.337Z,103564.53
2019-02-22T15:49:03.456Z,103571.92
2019-02-22T15:52:10.759Z,103578.33
2019-02-22T15:55:17.960Z,103576.19
2019-02-22T15:58:34.604Z,103569.30
2019-02-22T16:01:41.965Z,103573.34
2019-02-22T16:05:09.669Z,103578.43
2019-02-22T16:08:30.118Z,103583.62
2019-02-22T16:11:46.437Z,103587.45
2019-02-22T16:15:03.196Z,103595.79
2019-02-22T16:18:10.416Z,103604.88
2019-02-22T16:21:17.583Z,103604.11
2019-02-22T16:24:24.868Z,103614.67
2019-02-22T16:27:32.002Z,103634.29
2019-02-22T16:30:48.693Z,103631.64
2019-02-22T16:33:55.820Z,103612.22
2019-02-22T16:37:02.955Z,103619.00
2019-02-22T16:40:10.441Z,103619.18
2019-02-22T16:43:17.643Z,103637.72
2019-02-22T16:46:34.539Z,103641.03
2019-02-22T16:49:43.101Z,103634.00
2019-02-22T16:52:50.232Z,103628.07
2019-02-22T16:55:57.531Z,103631.00
2019-02-22T16:59:04.734Z,103638.14
2019-02-22T17:02:11.871Z,103643.39
2019-02-22T17:05:19.176Z,103634.40
2019-02-22T17:08:26.315Z,103628.41
2019-02-22T17:11:33.706Z,103622.78
2019-02-22T17:14:50.241Z,103632.98
2019-02-22T17:17:57.373Z,103655.96
2019-02-22T17:21:04.532Z,103667.82
2019-02-22T17:24:11.726Z,103670.19
2019-02-22T17:27:18.897Z,103669.72
2019-02-22T17:30:26.570Z,103669.63
2019-02-22T17:33:43.169Z,103674.48
2019-02-22T17:36:59.769Z,103671.79
2019-02-22T17:40:09.978Z,103676.72
2019-02-22T17:43:17.301Z,103676.45
2019-02-22T17:46:24.411Z,103689.95
2019-02-22T17:49:31.543Z,103696.83
2019-02-22T17:52:38.890Z,103699.05
2019-02-22T17:55:46.021Z,103699.80
2019-02-22T17:58:53.333Z,103699.91
2019-02-22T18:02:00.571Z,103703.62
2019-02-22T18:05:07.992Z,103705.55
2019-02-22T18:08:15.088Z,103716.77
2019-02-22T18:11:22.223Z,103719.55
2019-02-22T18:14:38.973Z,103709.11
2019-02-22T18:17:46.122Z,103707.19
2019-02-22T18:20:52.279Z,103701.98
2019-02-22T18:23:59.612Z,103704.71
2019-02-22T18:27:06.755Z,103703.53
2019-02-22T18:30:14.355Z,103706.84
2019-02-22T18:33:21.647Z,103717.14
2019-02-22T18:36:28.881Z,103728.59
2019-02-22T18:39:36.479Z,103724.16
2019-02-22T18:42:43.680Z,103723.12
2019-02-22T18:45:50.912Z,103727.06
2019-02-22T18:49:07.740Z,103720.09
2019-02-22T18:52:14.879Z,103716.00
2019-02-22T18:55:22.011Z,103718.05
2019-02-22T18:58:29.247Z,103707.75
2019-02-22T19:01:36.528Z,103700.72
2019-02-22T19:04:43.876Z,103696.64
2019-02-22T19:07:51.126Z,103689.51
2019-02-22T19:11:08.295Z,103708.36
2019-02-22T19:14:24.574Z,103702.98
2019-02-22T19:17:32.023Z,103706.89
2019-02-22T19:20:48.640Z,103701.82
2019-02-22T19:23:55.831Z,103706.58
2019-02-22T19:27:03.246Z,103703.02
2019-02-22T19:30:19.976Z,103701.20
2019-02-22T19:33:36.560Z,103703.91
2019-02-22T19:36:43.859Z,103722.79
2019-02-22T19:40:00.546Z,103727.86
2019-02-22T19:43:17.396Z,103728.02
2019-02-22T19:46:34.127Z,103722.97
2019-02-22T19:49:50.932Z,103729.16
2019-02-22T19:52:58.160Z,103731.15
2019-02-22T19:56:04.376Z,103748.86
2019-02-22T19:59:11.526Z,103753.70
2019-02-22T20:02:19.172Z,103749.15
2019-02-22T20:05:26.554Z,103756.85
2019-02-22T20:08:34.072Z,103741.16
2019-02-22T20:11:41.687Z,103739.78
2019-02-22T20:14:49.089Z,103750.16
2019-02-22T20:17:56.296Z,103738.54
2019-02-22T20:21:02.522Z,103742.63
2019-02-22T20:24:10.093Z,103736.18
2019-02-22T20:27:17.375Z,103732.38
2019-02-22T20:30:34.134Z,103742.42
2019-02-22T20:33:51.170Z,103737.39
2019-02-22T20:37:08.073Z,103749.34
2019-02-22T20:40:24.432Z,103743.28
2019-02-22T20:43:31.619Z,103756.47
2019-02-22T20:46:51.029Z,103750.33
2019-02-22T20:50:08.874Z,103745.63
2019-02-22T20:53:16.020Z,103743.73
2019-02-22T20:56:22.698Z,103754.17
2019-02-22T20:59:30.234Z,103745.30
2019-02-22T21:02:37.466Z,103729.00
2019-02-22T21:05:44.611Z,103738.31
2019-02-22T21:08:51.782Z,103743.38
2019-02-22T21:11:58.931Z,103756.97
2019-02-22T21:15:06.804Z,103759.86
2019-02-22T21:18:16.509Z,103763.58
2019-02-22T21:21:32.424Z,103762.23
2019-02-22T21:24:49.184Z,103755.73
2019-02-22T21:27:56.382Z,103780.50
2019-02-22T21:31:03.521Z,103791.70
2019-02-22T21:34:10.650Z,103802.11
2019-02-22T21:37:17.920Z,103795.13
2019-02-22T21:40:25.057Z,103801.63
2019-02-22T21:43:32.183Z,103809.27
2019-02-22T21:46:39.481Z,103817.68
2019-02-22T21:49:46.611Z,103819.97
2019-02-22T21:52:53.810Z,103813.30
2019-02-22T21:56:01.015Z,103823.33
2019-02-22T21:59:08.152Z,103821.69
2019-02-22T22:02:15.463Z,103824.61
2019-02-22T22:05:22.673Z,103840.59
2019-02-22T22:08:29.880Z,103848.20
2019-02-22T22:11:37.104Z,103855.05
2019-02-22T22:14:44.238Z,103865.45
2019-02-22T22:17:51.367Z,103861.58
2019-02-22T22:20:58.590Z,103860.30
2019-02-22T22:24:05.833Z,103847.89
2019-02-22T22:27:12.959Z,103844.84
2019-02-22T22:30:20.243Z,103852.83
2019-02-22T22:33:27.559Z,103861.24
2019-02-22T22:36:34.765Z,103855.73
2019-02-22T22:39:42.004Z,103865.09
2019-02-22T22:42:49.133Z,103874.27
2019-02-22T22:45:56.264Z,103877.36
2019-02-22T22:49:03.477Z,103871.91
2019-02-22T22:52:10.720Z,103863.45
2019-02-22T22:55:17.875Z,103860.63
2019-02-22T22:58:25.133Z,103871.78
2019-02-22T23:01:42.137Z,103862.06
2019-02-22T23:04:58.750Z,103871.55
2019-02-22T23:08:15.510Z,103859.51
2019-02-22T23:11:22.622Z,103862.73
2019-02-22T23:14:29.844Z,103855.70
2019-02-22T23:17:37.063Z,103862.67
2019-02-22T23:20:44.283Z,103855.12
2019-02-22T23:23:51.845Z,103842.22
2019-02-22T23:27:08.201Z,103849.87
2019-02-22T23:30:15.339Z,103851.55
2019-02-22T23:33:22.572Z,103832.16
2019-02-22T23:36:29.695Z,103825.31
2019-02-22T23:39:36.831Z,103833.80
2019-02-22T23:42:44.269Z,103820.48
2019-02-22T23:45:51.494Z,103820.23
2019-02-22T23:49:13.081Z,103837.56
2019-02-22T23:52:26.547Z,103844.77
2019-02-22T23:55:35.014Z,103849.84
2019-02-22T23:58:42.191Z,103841.25
